Time;durP1;ratioP1;P1;durP2;ratioP2;P2;SDS_P1;SDS_P2;PMS_P1;PMS_P2;Temp;Humidity;BMP_temperature;BMP_pressure;BME280_temperature;BME280_humidity;BME280_pressure;Samples;Min_cycle;Max_cycle;Signal;HPM_P1;HPM_P2
2021/12/12 00:00:53;;;;;;;10.30;6.57;;;4.70;95.90;;;;;;2076915;28;20072;-91
2021/12/12 00:02:05;;;;;;;10.65;6.25;;;4.70;95.90;;;;;;2077030;28;20026;-92
2021/12/12 00:03:19;;;;;;;11.73;6.40;;;4.70;95.90;;;;;;2067852;28;20129;-92
2021/12/12 00:04:32;;;;;;;10.90;6.35;;;4.70;96.20;;;;;;2076767;28;20033;-91
2021/12/12 00:05:39;;;;;;;11.23;6.28;;;4.70;96.10;;;;;;2082642;28;20021;-91
2021/12/12 00:06:47;;;;;;;10.73;6.00;;;4.70;95.90;;;;;;2082773;28;20021;-91
2021/12/12 00:07:48;;;;;;;11.88;6.43;;;4.70;95.90;;;;;;2082107;28;20056;-92
2021/12/12 00:08:53;;;;;;;10.30;6.38;;;4.70;95.90;;;;;;2073715;28;20029;-91
2021/12/12 00:10:04;;;;;;;12.27;6.78;;;4.70;95.90;;;;;;2075144;28;20047;-90
2021/12/12 00:11:08;;;;;;;10.30;5.80;;;4.70;95.90;;;;;;2083182;28;20022;-90
2021/12/12 00:12:22;;;;;;;10.73;6.30;;;4.70;95.90;;;;;;2082797;28;20037;-91
2021/12/12 00:13:35;;;;;;;10.60;6.10;;;4.70;95.90;;;;;;2075612;28;20026;-91
2021/12/12 00:14:36;;;;;;;10.43;6.40;;;4.70;95.90;;;;;;2076460;28;20022;-91
2021/12/12 00:15:38;;;;;;;10.02;6.38;;;4.70;95.90;;;;;;2074577;28;20022;-92
2021/12/12 00:16:41;;;;;;;9.48;6.00;;;4.70;95.90;;;;;;2058370;28;20172;-92
2021/12/12 00:17:42;;;;;;;11.88;6.45;;;4.70;95.90;;;;;;2059158;28;20035;-91
2021/12/12 00:18:43;;;;;;;9.80;5.95;;;4.70;95.90;;;;;;2081599;28;20044;-93
2021/12/12 00:19:44;;;;;;;9.32;5.47;;;4.70;95.90;;;;;;2083397;28;20499;-92
2021/12/12 00:20:47;;;;;;;9.75;5.78;;;4.70;95.90;;;;;;2084583;28;20459;-91
2021/12/12 00:21:50;;;;;;;10.63;5.95;;;4.70;95.90;;;;;;2078868;28;20022;-92
2021/12/12 00:22:55;;;;;;;12.05;6.15;;;4.80;95.90;;;;;;2076158;28;20084;-92
2021/12/12 00:23:56;;;;;;;10.85;5.78;;;4.80;95.90;;;;;;2066115;28;20034;-91
2021/12/12 00:24:57;;;;;;;10.63;6.45;;;4.80;95.90;;;;;;2082223;28;20009;-92
2021/12/12 00:25:58;;;;;;;12.00;6.50;;;4.80;95.90;;;;;;2082834;28;20124;-91
2021/12/12 00:27:00;;;;;;;12.00;6.63;;;4.80;95.90;;;;;;2066272;28;20037;-92
2021/12/12 00:28:01;;;;;;;9.65;5.93;;;4.80;95.90;;;;;;2068138;28;20023;-92
2021/12/12 00:29:03;;;;;;;9.60;5.85;;;4.70;95.90;;;;;;2074255;28;21636;-93
2021/12/12 00:30:08;;;;;;;11.93;6.72;;;4.70;95.90;;;;;;2066752;28;20121;-91
2021/12/12 00:31:12;;;;;;;12.05;5.68;;;4.80;95.90;;;;;;2082271;28;20028;-93
2021/12/12 00:32:15;;;;;;;10.15;6.13;;;4.80;95.90;;;;;;2074646;28;20022;-92
2021/12/12 00:33:17;;;;;;;10.52;6.13;;;4.80;96.20;;;;;;2080171;28;20018;-91
2021/12/12 00:34:18;;;;;;;11.77;6.50;;;4.70;95.90;;;;;;2090840;28;20028;-92
2021/12/12 00:35:21;;;;;;;12.93;6.57;;;4.80;95.90;;;;;;2082417;28;20128;-91
2021/12/12 00:36:24;;;;;;;10.45;6.30;;;4.80;95.90;;;;;;2075703;28;20030;-91
2021/12/12 00:37:25;;;;;;;10.77;6.30;;;4.80;95.90;;;;;;2077064;28;20034;-91
2021/12/12 00:38:31;;;;;;;9.38;5.95;;;4.80;95.90;;;;;;2084235;28;20036;-92
2021/12/12 00:39:36;;;;;;;11.90;6.20;;;4.80;95.90;;;;;;2084257;28;20041;-92
2021/12/12 00:40:41;;;;;;;10.20;6.13;;;4.80;95.90;;;;;;2084361;28;20456;-91
2021/12/12 00:41:54;;;;;;;13.38;6.47;;;4.80;95.90;;;;;;2083530;28;20025;-91
2021/12/12 00:42:58;;;;;;;10.98;5.70;;;4.80;95.90;;;;;;2086799;28;20037;-92
2021/12/12 00:44:00;;;;;;;10.38;6.30;;;4.80;95.90;;;;;;2081933;28;20029;-92
2021/12/12 00:45:08;;;;;;;10.00;5.85;;;4.80;95.90;;;;;;2082743;28;20029;-92
2021/12/12 00:46:12;;;;;;;11.15;6.13;;;4.80;95.90;;;;;;2075346;28;20081;-91
2021/12/12 00:47:13;;;;;;;10.52;6.18;;;4.80;95.90;;;;;;2074346;28;20092;-92
2021/12/12 00:48:14;;;;;;;10.02;5.82;;;4.80;95.80;;;;;;2074373;28;20030;-91
2021/12/12 00:49:16;;;;;;;11.15;6.53;;;4.80;95.80;;;;;;2074620;28;20030;-93
2021/12/12 00:50:30;;;;;;;9.63;6.00;;;4.80;95.80;;;;;;2082400;28;20507;-92
2021/12/12 00:51:36;;;;;;;13.65;5.93;;;4.80;95.80;;;;;;2082004;28;20765;-92
2021/12/12 00:52:37;;;;;;;10.15;5.82;;;4.80;95.80;;;;;;2073660;28;20177;-91
2021/12/12 00:53:39;;;;;;;10.18;5.57;;;4.80;95.80;;;;;;2080062;28;20088;-92
2021/12/12 00:54:42;;;;;;;11.30;5.50;;;4.80;95.80;;;;;;2083177;28;20080;-92
2021/12/12 00:55:44;;;;;;;12.13;5.50;;;4.80;95.80;;;;;;2082184;28;20435;-91
2021/12/12 00:56:45;;;;;;;10.10;5.47;;;4.80;95.80;;;;;;2074439;28;20038;-90
2021/12/12 00:57:51;;;;;;;8.57;5.13;;;4.80;95.80;;;;;;2066306;28;20038;-91
2021/12/12 00:58:53;;;;;;;9.98;5.25;;;4.80;95.80;;;;;;2066579;28;20027;-91
2021/12/12 00:59:53;;;;;;;9.27;5.00;;;4.80;95.80;;;;;;2073844;28;20022;-91
2021/12/12 01:01:03;;;;;;;9.98;5.25;;;4.90;95.80;;;;;;2080653;28;20041;-92
2021/12/12 01:02:07;;;;;;;11.77;5.40;;;4.90;95.80;;;;;;2083624;28;20043;-90
2021/12/12 01:03:10;;;;;;;10.35;4.95;;;4.90;95.80;;;;;;2082996;28;20026;-91
2021/12/12 01:04:19;;;;;;;8.38;4.60;;;4.80;95.80;;;;;;2082631;28;20050;-88
2021/12/12 01:05:20;;;;;;;9.63;4.72;;;4.90;95.80;;;;;;2083015;28;20014;-87
2021/12/12 01:06:23;;;;;;;11.75;5.38;;;4.90;95.80;;;;;;2090208;28;20020;-89
2021/12/12 01:07:29;;;;;;;10.68;5.07;;;4.90;95.80;;;;;;2092415;28;20033;-85
2021/12/12 01:08:30;;;;;;;9.20;4.60;;;4.90;95.80;;;;;;2092459;28;20021;-84
2021/12/12 01:09:37;;;;;;;9.18;4.65;;;4.90;95.80;;;;;;2091851;28;20097;-89
2021/12/12 01:10:43;;;;;;;9.90;4.47;;;4.90;95.80;;;;;;2081710;28;20495;-91
2021/12/12 01:11:47;;;;;;;9.27;4.82;;;4.90;95.80;;;;;;2075039;28;20309;-91
2021/12/12 01:12:48;;;;;;;8.80;4.40;;;4.90;95.80;;;;;;2074626;28;20037;-91
2021/12/12 01:13:49;;;;;;;8.55;4.40;;;4.90;95.80;;;;;;2074531;28;20084;-91
2021/12/12 01:14:57;;;;;;;7.15;3.97;;;4.90;95.80;;;;;;2081318;28;20498;-91
2021/12/12 01:16:07;;;;;;;11.77;4.93;;;4.90;95.80;;;;;;2081881;28;20018;-91
2021/12/12 01:17:13;;;;;;;10.48;4.65;;;4.90;95.70;;;;;;2075535;28;20025;-90
2021/12/12 01:18:20;;;;;;;7.53;4.00;;;4.90;95.80;;;;;;2074194;28;20022;-90
2021/12/12 01:19:26;;;;;;;8.55;4.22;;;4.90;96.00;;;;;;2082323;28;20116;-92
2021/12/12 01:20:33;;;;;;;7.75;4.20;;;4.90;95.70;;;;;;2082775;28;20108;-91
2021/12/12 01:21:38;;;;;;;8.60;4.10;;;4.90;95.70;;;;;;2082846;28;20032;-92
2021/12/12 01:22:39;;;;;;;9.65;4.72;;;4.90;95.70;;;;;;2081300;28;20129;-91
2021/12/12 01:23:53;;;;;;;9.05;4.22;;;5.00;95.70;;;;;;2069670;28;20085;-91
2021/12/12 01:24:57;;;;;;;8.48;4.53;;;5.00;95.70;;;;;;2071412;28;20030;-92
2021/12/12 01:25:59;;;;;;;9.20;4.00;;;5.00;95.70;;;;;;2074207;28;20121;-91
2021/12/12 01:27:02;;;;;;;6.90;3.78;;;4.90;95.70;;;;;;2082562;28;20021;-92
2021/12/12 01:28:04;;;;;;;8.63;4.05;;;5.00;95.70;;;;;;2082666;28;20024;-92
2021/12/12 01:29:07;;;;;;;9.23;4.03;;;5.00;95.70;;;;;;2088084;28;20020;-92
2021/12/12 01:30:10;;;;;;;9.60;4.20;;;5.00;95.70;;;;;;2082404;28;20108;-91
2021/12/12 01:31:15;;;;;;;9.93;4.47;;;5.00;95.70;;;;;;2082768;28;20087;-91
2021/12/12 01:32:25;;;;;;;7.47;3.67;;;5.00;95.70;;;;;;2073580;28;20077;-90
2021/12/12 01:33:33;;;;;;;9.80;3.60;;;5.00;95.70;;;;;;2071865;28;20026;-91
2021/12/12 01:34:34;;;;;;;9.60;3.88;;;5.00;95.70;;;;;;2085717;28;20044;-91
2021/12/12 01:35:37;;;;;;;8.15;3.90;;;5.00;95.70;;;;;;2083223;28;20065;-90
2021/12/12 01:36:50;;;;;;;8.35;3.90;;;5.00;95.60;;;;;;2083564;28;20041;-84
2021/12/12 01:39:20;;;;;;;8.40;3.20;;;5.00;95.70;;;;;;2088827;28;20069;-91
2021/12/12 01:40:26;;;;;;;8.63;4.05;;;5.00;95.60;;;;;;2083400;28;20030;-91
2021/12/12 01:41:37;;;;;;;8.43;3.72;;;5.00;95.60;;;;;;2083340;28;20075;-91
2021/12/12 01:42:54;;;;;;;8.25;3.90;;;5.00;95.60;;;;;;2083570;28;20030;-92
2021/12/12 01:44:01;;;;;;;9.60;4.05;;;5.00;95.60;;;;;;2082280;28;20026;-92
2021/12/12 01:45:10;;;;;;;10.55;3.80;;;5.00;95.60;;;;;;2080003;28;20017;-92
2021/12/12 01:46:25;;;;;;;8.60;3.88;;;5.00;95.60;;;;;;2084229;28;20026;-91
2021/12/12 01:47:50;;;;;;;9.93;3.80;;;5.00;95.60;;;;;;2082337;28;20452;-91
2021/12/12 01:48:54;;;;;;;8.75;3.90;;;5.00;95.60;;;;;;2081688;28;20407;-92
2021/12/12 01:49:59;;;;;;;7.45;3.95;;;5.00;95.60;;;;;;2082643;28;20034;-90
2021/12/12 01:51:03;;;;;;;8.40;4.25;;;5.00;95.60;;;;;;2082332;28;20111;-91
2021/12/12 01:52:07;;;;;;;7.43;3.45;;;5.00;95.60;;;;;;2081687;28;20029;-90
2021/12/12 01:53:11;;;;;;;10.98;3.85;;;5.00;95.60;;;;;;2082968;28;20384;-90
2021/12/12 01:54:14;;;;;;;6.75;3.50;;;5.00;95.60;;;;;;2081136;28;20017;-91
2021/12/12 01:55:24;;;;;;;6.90;3.58;;;5.00;95.60;;;;;;2081237;28;20060;-91
2021/12/12 01:56:29;;;;;;;7.18;3.50;;;5.00;95.60;;;;;;2081565;28;20029;-90
2021/12/12 01:57:35;;;;;;;8.63;3.40;;;5.00;95.60;;;;;;2082108;28;20033;-91
2021/12/12 01:58:38;;;;;;;8.27;4.03;;;5.00;95.60;;;;;;2081965;28;20389;-90
2021/12/12 01:59:41;;;;;;;8.15;4.05;;;5.00;95.60;;;;;;2082443;28;20018;-91
2021/12/12 02:00:44;;;;;;;8.07;4.28;;;5.00;95.60;;;;;;2081569;28;20568;-91
2021/12/12 02:01:53;;;;;;;6.80;3.65;;;5.00;95.60;;;;;;2078334;28;20029;-91
2021/12/12 02:02:55;;;;;;;7.60;3.80;;;5.00;95.60;;;;;;2083822;28;20404;-91
2021/12/12 02:04:03;;;;;;;8.02;3.67;;;5.00;95.60;;;;;;2073400;28;20017;-91
2021/12/12 02:05:12;;;;;;;7.47;3.47;;;5.00;95.60;;;;;;2080005;28;20021;-91
2021/12/12 02:06:15;;;;;;;7.97;3.75;;;5.00;95.60;;;;;;2080987;28;20072;-90
2021/12/12 02:07:24;;;;;;;13.75;4.05;;;5.00;95.60;;;;;;2074356;28;20022;-91
2021/12/12 02:08:27;;;;;;;7.03;3.70;;;5.00;95.70;;;;;;2076914;28;20049;-91
2021/12/12 02:09:28;;;;;;;6.50;3.60;;;5.00;95.70;;;;;;2081576;28;20025;-90
2021/12/12 02:10:32;;;;;;;8.73;3.40;;;5.00;95.70;;;;;;2081540;28;20045;-91
2021/12/12 02:11:34;;;;;;;7.72;3.42;;;5.00;95.70;;;;;;2082163;28;20022;-90
2021/12/12 02:12:36;;;;;;;6.43;3.20;;;5.00;95.70;;;;;;2065780;28;20038;-90
2021/12/12 02:13:40;;;;;;;7.30;3.72;;;5.00;95.70;;;;;;2074041;28;20041;-90
2021/12/12 02:14:42;;;;;;;8.48;3.30;;;5.00;95.70;;;;;;2081525;28;20506;-90
2021/12/12 02:15:46;;;;;;;7.18;3.20;;;5.00;96.00;;;;;;2072348;28;20018;-91
2021/12/12 02:17:00;;;;;;;8.57;3.85;;;5.00;95.70;;;;;;2074321;28;20050;-90
2021/12/12 02:18:09;;;;;;;9.80;3.40;;;4.90;95.70;;;;;;2082917;28;20033;-90
2021/12/12 02:19:13;;;;;;;7.07;3.20;;;4.90;95.70;;;;;;2079914;28;20033;-90
2021/12/12 02:20:36;;;;;;;6.75;3.03;;;4.90;95.70;;;;;;2080215;28;20010;-84
2021/12/12 02:21:58;;;;;;;6.97;3.42;;;5.00;95.70;;;;;;2086027;28;20006;-87
2021/12/12 02:35:44;;;;;;;6.47;3.15;;;4.90;95.70;;;;;;2077897;28;20029;-91
2021/12/12 02:36:45;;;;;;;7.70;3.58;;;4.90;95.70;;;;;;2079750;28;20454;-91
2021/12/12 02:37:47;;;;;;;13.38;4.38;;;4.90;95.70;;;;;;2074024;28;20038;-92
2021/12/12 02:38:50;;;;;;;6.78;3.50;;;4.90;95.70;;;;;;2073485;28;20089;-91
2021/12/12 02:39:51;;;;;;;8.63;3.50;;;4.90;95.70;;;;;;2073911;28;20108;-92
2021/12/12 02:40:57;;;;;;;10.25;4.07;;;4.90;95.80;;;;;;2076198;28;20125;-91
2021/12/12 02:42:04;;;;;;;8.63;3.85;;;4.90;95.80;;;;;;2079468;28;20029;-92
2021/12/12 02:43:07;;;;;;;11.02;3.75;;;4.90;95.80;;;;;;2086698;28;20032;-91
2021/12/12 02:44:08;;;;;;;10.38;3.85;;;4.90;96.10;;;;;;2073612;28;20025;-91
2021/12/12 02:45:11;;;;;;;7.15;3.58;;;4.90;95.80;;;;;;2071296;28;20690;-91
2021/12/12 02:46:14;;;;;;;6.43;3.45;;;4.90;95.80;;;;;;2071986;28;20022;-90
2021/12/12 02:47:20;;;;;;;7.20;3.60;;;4.90;95.80;;;;;;2064499;28;20038;-90
2021/12/12 02:48:28;;;;;;;7.07;3.75;;;4.90;95.80;;;;;;2069613;28;20583;-92
2021/12/12 02:49:41;;;;;;;8.20;4.07;;;4.90;95.80;;;;;;2081454;28;20029;-92
2021/12/12 02:50:45;;;;;;;8.73;3.95;;;4.90;95.80;;;;;;2073481;28;20487;-92
2021/12/12 02:51:46;;;;;;;9.57;4.13;;;4.90;95.80;;;;;;2075496;28;20113;-91
2021/12/12 02:52:51;;;;;;;9.05;3.65;;;4.90;95.80;;;;;;2081309;28;20550;-91
2021/12/12 02:53:56;;;;;;;8.43;4.00;;;4.90;95.90;;;;;;2082019;28;20021;-91
2021/12/12 02:55:00;;;;;;;7.65;3.90;;;5.00;95.90;;;;;;2081609;28;20021;-91
2021/12/12 02:56:17;;;;;;;9.57;3.80;;;5.00;95.90;;;;;;2081063;28;20017;-91
2021/12/12 02:57:18;;;;;;;9.98;3.75;;;5.00;95.90;;;;;;2081339;28;20487;-92
2021/12/12 02:58:21;;;;;;;8.70;3.95;;;5.00;95.90;;;;;;2086899;28;20025;-88
2021/12/12 02:59:23;;;;;;;8.55;3.97;;;5.00;95.90;;;;;;2082322;28;20019;-88
2021/12/12 03:00:30;;;;;;;8.65;3.67;;;5.00;95.90;;;;;;2080829;28;20057;-89
2021/12/12 03:01:35;;;;;;;7.15;3.58;;;5.00;95.90;;;;;;2080470;28;20068;-87
2021/12/12 03:02:44;;;;;;;7.20;3.67;;;5.00;95.90;;;;;;2087792;28;20044;-87
2021/12/12 03:03:46;;;;;;;9.25;4.10;;;5.00;95.90;;;;;;2088614;28;20037;-88
2021/12/12 03:04:48;;;;;;;11.57;3.95;;;5.00;95.90;;;;;;2086471;28;20017;-91
2021/12/12 03:05:48;;;;;;;8.45;4.35;;;5.00;95.90;;;;;;2073323;28;20033;-90
2021/12/12 03:06:50;;;;;;;8.32;3.88;;;5.00;95.90;;;;;;2056782;28;20077;-91
2021/12/12 03:07:51;;;;;;;10.98;3.85;;;5.00;95.90;;;;;;2062306;28;20037;-90
2021/12/12 03:08:58;;;;;;;7.88;3.78;;;5.00;95.90;;;;;;2065556;28;20061;-90
2021/12/12 03:09:59;;;;;;;7.50;3.45;;;5.00;95.90;;;;;;2072401;28;20017;-90
2021/12/12 03:11:01;;;;;;;8.77;4.05;;;5.00;96.20;;;;;;2074941;28;20026;-90
2021/12/12 03:12:07;;;;;;;9.40;3.80;;;5.00;96.00;;;;;;2078970;28;20078;-90
2021/12/12 03:13:08;;;;;;;8.98;3.95;;;5.00;96.00;;;;;;2079833;28;20034;-90
2021/12/12 03:14:09;;;;;;;8.40;3.72;;;5.00;96.00;;;;;;2073385;28;20034;-90
2021/12/12 03:15:16;;;;;;;9.90;4.07;;;5.00;96.00;;;;;;2081481;28;20419;-89
2021/12/12 03:16:17;;;;;;;9.40;3.70;;;5.00;96.00;;;;;;2084154;28;20529;-90
2021/12/12 03:17:22;;;;;;;8.80;3.78;;;5.00;96.00;;;;;;2081375;28;20113;-89
2021/12/12 03:18:30;;;;;;;8.27;3.58;;;5.00;96.00;;;;;;2073247;28;20021;-89
2021/12/12 03:19:31;;;;;;;10.00;3.58;;;5.00;96.00;;;;;;2074716;28;20072;-90
2021/12/12 03:20:37;;;;;;;9.35;3.88;;;5.00;96.00;;;;;;2074898;28;20022;-91
2021/12/12 03:21:42;;;;;;;7.35;3.63;;;5.10;96.00;;;;;;2082639;28;20025;-90
2021/12/12 03:22:44;;;;;;;10.20;4.22;;;5.10;96.00;;;;;;2089280;28;20021;-91
2021/12/12 03:23:52;;;;;;;7.57;3.38;;;5.10;96.00;;;;;;2069745;28;20026;-90
2021/12/12 03:24:53;;;;;;;7.43;3.92;;;5.10;96.00;;;;;;2074979;28;20018;-91
2021/12/12 03:25:59;;;;;;;9.32;4.13;;;5.10;96.00;;;;;;2078335;28;20080;-90
2021/12/12 03:27:03;;;;;;;8.52;4.07;;;5.10;96.10;;;;;;2066063;28;20018;-90
2021/12/12 03:28:07;;;;;;;8.93;3.88;;;5.10;96.00;;;;;;2066106;28;20038;-90
2021/12/12 03:29:08;;;;;;;9.52;3.80;;;5.10;96.10;;;;;;2069456;28;20025;-90
2021/12/12 03:30:09;;;;;;;7.55;3.85;;;5.10;96.00;;;;;;2073720;28;20066;-91
2021/12/12 03:31:15;;;;;;;8.00;3.75;;;5.10;96.10;;;;;;2081278;28;20112;-91
2021/12/12 03:32:19;;;;;;;7.63;3.50;;;5.10;96.10;;;;;;2089814;28;20036;-90
2021/12/12 03:33:21;;;;;;;9.88;4.35;;;5.10;96.10;;;;;;2089785;28;20045;-89
2021/12/12 03:34:25;;;;;;;9.02;4.10;;;5.10;96.10;;;;;;2088329;28;20021;-89
2021/12/12 03:35:26;;;;;;;9.68;4.30;;;5.10;96.10;;;;;;2089949;28;20024;-89
2021/12/12 03:36:27;;;;;;;6.85;3.92;;;5.10;96.10;;;;;;2080422;28;20040;-89
2021/12/12 03:37:30;;;;;;;7.53;4.07;;;5.10;96.30;;;;;;2062568;28;20110;-89
2021/12/12 03:38:32;;;;;;;8.02;4.10;;;5.10;96.10;;;;;;2073961;28;20033;-90
2021/12/12 03:39:37;;;;;;;7.60;4.28;;;5.10;96.10;;;;;;2073341;28;20030;-88
2021/12/12 03:40:39;;;;;;;7.95;3.97;;;5.10;96.40;;;;;;2074514;28;20017;-90
2021/12/12 03:41:43;;;;;;;8.63;3.90;;;5.10;96.10;;;;;;2072732;28;20500;-89
2021/12/12 03:42:46;;;;;;;6.57;4.15;;;5.10;96.10;;;;;;2073922;28;20126;-89
2021/12/12 03:43:56;;;;;;;7.82;4.00;;;5.10;96.10;;;;;;2081089;28;20573;-89
2021/12/12 03:44:59;;;;;;;7.15;4.00;;;5.20;96.10;;;;;;2084638;28;20023;-89
2021/12/12 03:46:01;;;;;;;7.57;3.95;;;5.10;96.10;;;;;;2088315;28;20048;-90
2021/12/12 03:47:10;;;;;;;8.52;3.92;;;5.20;96.10;;;;;;2089556;28;20108;-90
2021/12/12 03:48:24;;;;;;;9.05;4.35;;;5.10;96.10;;;;;;2083181;28;20088;-90
2021/12/12 03:49:25;;;;;;;8.05;4.05;;;5.20;96.10;;;;;;2089640;28;20561;-90
2021/12/12 03:50:30;;;;;;;8.48;4.20;;;5.20;96.10;;;;;;2089800;28;20100;-90
2021/12/12 03:51:33;;;;;;;7.28;3.63;;;5.20;96.10;;;;;;2090236;28;20028;-91
2021/12/12 03:52:34;;;;;;;6.70;3.97;;;5.20;96.20;;;;;;2080816;28;20084;-90
2021/12/12 03:53:37;;;;;;;8.15;3.60;;;5.20;96.10;;;;;;2070440;28;20038;-90
2021/12/12 03:54:39;;;;;;;8.63;4.18;;;5.20;96.20;;;;;;2065275;28;20539;-90
2021/12/12 03:55:41;;;;;;;7.47;3.80;;;5.20;96.20;;;;;;2068588;28;20587;-89
2021/12/12 03:56:42;;;;;;;8.57;3.97;;;5.20;96.20;;;;;;2073255;28;20120;-89
2021/12/12 03:57:47;;;;;;;7.10;4.30;;;5.20;96.40;;;;;;2072142;28;20022;-89
2021/12/12 03:58:48;;;;;;;6.35;3.80;;;5.20;96.20;;;;;;2071271;28;20029;-89
2021/12/12 03:59:49;;;;;;;7.20;3.85;;;5.20;96.20;;;;;;2076677;28;20033;-89
2021/12/12 04:00:52;;;;;;;8.25;4.15;;;5.20;96.20;;;;;;2073635;28;20053;-88
2021/12/12 04:01:53;;;;;;;7.90;4.03;;;5.20;96.20;;;;;;2072775;28;20092;-89
2021/12/12 04:02:55;;;;;;;6.72;4.00;;;5.20;96.20;;;;;;2089717;28;20564;-89
2021/12/12 04:04:00;;;;;;;8.40;3.80;;;5.20;96.20;;;;;;2089361;28;20051;-90
2021/12/12 04:05:00;;;;;;;7.78;3.97;;;5.20;96.20;;;;;;2081841;28;20025;-90
2021/12/12 04:06:06;;;;;;;6.60;3.50;;;5.20;96.20;;;;;;2081119;28;20038;-89
2021/12/12 04:07:10;;;;;;;9.15;4.30;;;5.20;96.20;;;;;;2081263;28;20480;-90
2021/12/12 04:08:11;;;;;;;8.43;3.72;;;5.30;96.20;;;;;;2078934;28;20639;-89
2021/12/12 04:09:13;;;;;;;6.28;3.95;;;5.30;96.20;;;;;;2090149;28;20095;-90
2021/12/12 04:10:18;;;;;;;6.38;3.60;;;5.20;96.20;;;;;;2090128;28;20025;-90
2021/12/12 04:11:32;;;;;;;8.85;3.65;;;5.30;96.20;;;;;;2090034;28;20479;-89
2021/12/12 04:12:33;;;;;;;6.72;3.83;;;5.30;96.20;;;;;;2089523;28;20025;-90
2021/12/12 04:13:43;;;;;;;6.15;3.60;;;5.20;96.20;;;;;;2090072;28;20494;-89
2021/12/12 04:14:44;;;;;;;6.70;4.00;;;5.30;96.20;;;;;;2090082;28;20031;-90
2021/12/12 04:15:50;;;;;;;5.80;3.60;;;5.30;96.20;;;;;;2090120;28;20120;-91
2021/12/12 04:16:54;;;;;;;6.85;3.75;;;5.30;96.20;;;;;;2089664;28;20072;-90
2021/12/12 04:17:55;;;;;;;5.13;3.35;;;5.30;96.20;;;;;;2090039;28;20032;-89
2021/12/12 04:18:57;;;;;;;5.72;3.50;;;5.30;96.20;;;;;;2093267;28;20048;-90
2021/12/12 04:20:05;;;;;;;7.05;3.80;;;5.30;96.20;;;;;;2073064;28;20026;-89
2021/12/12 04:21:06;;;;;;;7.03;4.07;;;5.30;96.20;;;;;;2066937;28;20030;-90
2021/12/12 04:22:07;;;;;;;6.55;4.07;;;5.30;96.20;;;;;;2065022;28;20026;-90
2021/12/12 04:23:19;;;;;;;6.72;4.00;;;5.30;96.20;;;;;;2064133;28;20473;-89
2021/12/12 04:24:27;;;;;;;6.68;4.07;;;5.30;96.20;;;;;;2074112;28;20489;-89
2021/12/12 04:25:28;;;;;;;6.18;3.88;;;5.30;96.20;;;;;;2076994;28;20025;-90
2021/12/12 04:26:35;;;;;;;6.80;4.40;;;5.30;96.20;;;;;;2072951;28;20084;-89
2021/12/12 04:27:36;;;;;;;6.82;4.07;;;5.30;96.20;;;;;;2073898;28;20034;-89
2021/12/12 04:28:38;;;;;;;7.22;3.95;;;5.30;96.20;;;;;;2072288;28;20117;-89
2021/12/12 04:29:42;;;;;;;8.27;4.10;;;5.30;96.20;;;;;;2080723;28;20045;-89
2021/12/12 04:30:43;;;;;;;6.45;3.83;;;5.30;96.20;;;;;;2081188;28;20051;-90
2021/12/12 04:31:49;;;;;;;6.65;4.13;;;5.30;96.20;;;;;;2081508;28;20059;-89
2021/12/12 04:32:51;;;;;;;7.18;3.60;;;5.30;96.20;;;;;;2082272;28;20116;-90
2021/12/12 04:33:53;;;;;;;6.43;4.15;;;5.30;96.30;;;;;;2081161;28;20057;-89
2021/12/12 04:34:58;;;;;;;7.60;4.30;;;5.30;96.30;;;;;;2066214;28;20114;-90
2021/12/12 04:35:59;;;;;;;7.13;3.85;;;5.30;96.30;;;;;;2082094;28;20017;-90
2021/12/12 04:37:01;;;;;;;6.80;3.72;;;5.30;96.30;;;;;;2081026;28;20457;-90
2021/12/12 04:38:04;;;;;;;6.82;3.83;;;5.40;96.30;;;;;;2081474;28;20376;-90
2021/12/12 04:39:21;;;;;;;6.32;3.70;;;5.40;96.30;;;;;;2090448;28;20120;-90
2021/12/12 04:40:25;;;;;;;6.50;3.65;;;5.40;96.30;;;;;;2082047;28;20022;-90
2021/12/12 04:41:26;;;;;;;6.68;4.00;;;5.40;96.30;;;;;;2074961;28;20033;-90
2021/12/12 04:42:31;;;;;;;6.88;4.00;;;5.30;96.30;;;;;;2073613;28;20037;-90
2021/12/12 04:43:32;;;;;;;6.28;3.90;;;5.40;96.30;;;;;;2075236;28;20034;-90
2021/12/12 04:44:36;;;;;;;5.70;3.45;;;5.40;96.30;;;;;;2080266;28;20038;-90
2021/12/12 04:45:58;;;;;;;6.57;3.65;;;5.40;96.30;;;;;;2083634;28;20017;-90
2021/12/12 04:50:18;;;;;;;5.22;3.50;;;5.40;96.30;;;;;;2100978;28;20037;-88
2021/12/12 04:51:57;;;;;;;6.00;3.63;;;5.40;96.30;;;;;;2100454;28;20005;-87
2021/12/12 04:53:03;;;;;;;7.15;3.80;;;5.40;96.30;;;;;;2067026;28;20505;-88
2021/12/12 04:54:53;;;;;;;5.93;4.03;;;5.40;96.30;;;;;;2082548;28;20133;-87
2021/12/12 04:56:16;;;;;;;6.43;3.70;;;5.40;96.20;;;;;;2075212;28;20033;-87
2021/12/12 04:57:29;;;;;;;7.25;4.05;;;5.40;96.30;;;;;;2086961;28;20021;-87
2021/12/12 04:58:46;;;;;;;6.35;3.72;;;5.40;96.20;;;;;;2079054;28;20029;-87
2021/12/12 04:59:57;;;;;;;6.90;3.72;;;5.40;96.20;;;;;;2088804;28;20052;-89
2021/12/12 05:01:12;;;;;;;6.60;3.45;;;5.40;96.20;;;;;;2095492;28;20013;-89
2021/12/12 05:02:21;;;;;;;5.95;4.03;;;5.50;96.30;;;;;;2094174;28;20093;-89
2021/12/12 05:03:47;;;;;;;7.30;4.18;;;5.40;96.20;;;;;;2087058;28;20065;-90
2021/12/12 05:05:03;;;;;;;6.82;3.67;;;5.40;96.30;;;;;;2078947;28;20121;-90
2021/12/12 05:06:15;;;;;;;5.70;3.70;;;5.50;96.30;;;;;;2077673;28;20057;-90
2021/12/12 05:07:20;;;;;;;6.25;3.85;;;5.50;96.30;;;;;;2075589;28;20472;-90
2021/12/12 05:08:38;;;;;;;5.63;3.42;;;5.50;96.30;;;;;;2073066;28;20022;-90
2021/12/12 05:09:50;;;;;;;5.65;3.38;;;5.40;96.30;;;;;;2080565;28;20068;-90
2021/12/12 05:11:05;;;;;;;6.47;3.58;;;5.50;96.30;;;;;;2083064;28;20030;-90
2021/12/12 05:12:30;;;;;;;6.10;3.88;;;5.50;96.30;;;;;;2084333;28;20025;-89
2021/12/12 05:13:42;;;;;;;6.00;3.60;;;5.50;96.30;;;;;;2091449;28;20487;-90
2021/12/12 05:14:57;;;;;;;6.25;3.88;;;5.50;96.30;;;;;;2082777;28;20112;-90
2021/12/12 05:16:18;;;;;;;6.75;3.85;;;5.50;96.30;;;;;;2084606;28;20029;-90
2021/12/12 05:17:21;;;;;;;;;;;5.50;96.30;;;;;;2082934;28;20052;-89
2021/12/12 05:18:49;;;;;;;5.65;3.35;;;5.50;96.30;;;;;;2076490;28;19932;-90
2021/12/12 05:19:59;;;;;;;5.32;3.58;;;5.50;96.30;;;;;;2082053;28;20453;-90
2021/12/12 05:21:10;;;;;;;5.93;3.53;;;5.50;96.30;;;;;;2075396;28;20033;-91
2021/12/12 05:22:20;;;;;;;5.18;3.60;;;5.50;96.30;;;;;;2084013;28;20026;-90
2021/12/12 05:23:23;;;;;;;6.22;3.78;;;5.50;96.30;;;;;;2085188;28;20025;-89
2021/12/12 05:24:26;;;;;;;7.32;4.43;;;5.50;96.30;;;;;;2082760;28;20053;-90
2021/12/12 05:25:35;;;;;;;6.43;4.00;;;5.60;96.30;;;;;;2074131;28;20064;-88
2021/12/12 05:27:04;;;;;;;5.80;3.80;;;5.50;96.30;;;;;;2075501;28;20049;-90
2021/12/12 05:28:06;;;;;;;5.30;3.40;;;5.60;96.40;;;;;;2065175;28;20042;-90
2021/12/12 05:29:15;;;;;;;6.32;3.80;;;5.60;96.40;;;;;;2081919;28;20029;-90
2021/12/12 05:30:21;;;;;;;5.47;3.72;;;5.60;96.40;;;;;;2077106;28;20026;-90
2021/12/12 05:31:22;;;;;;;5.22;3.83;;;5.50;96.30;;;;;;2082916;28;20029;-90
2021/12/12 05:32:24;;;;;;;5.93;3.42;;;5.60;96.40;;;;;;2071694;28;20113;-90
2021/12/12 05:33:26;;;;;;;5.32;3.88;;;5.60;96.40;;;;;;2066377;28;20321;-90
2021/12/12 05:34:33;;;;;;;5.97;4.05;;;5.60;96.40;;;;;;2074055;28;20518;-89
2021/12/12 05:35:37;;;;;;;6.50;4.30;;;5.60;96.40;;;;;;2075034;28;20070;-90
2021/12/12 05:36:38;;;;;;;6.57;4.03;;;5.60;96.40;;;;;;2081990;28;20037;-89
2021/12/12 05:37:39;;;;;;;6.88;4.25;;;5.60;96.50;;;;;;2090412;28;20128;-90
2021/12/12 05:38:41;;;;;;;5.93;3.85;;;5.60;96.50;;;;;;2090616;28;20028;-90
2021/12/12 05:39:42;;;;;;;5.13;3.60;;;5.70;96.50;;;;;;2082699;28;20037;-89
2021/12/12 05:40:45;;;;;;;6.50;3.75;;;5.70;96.50;;;;;;2082067;28;20022;-88
2021/12/12 05:41:48;;;;;;;6.65;3.97;;;5.70;96.50;;;;;;2090532;28;20021;-90
2021/12/12 05:42:53;;;;;;;5.85;4.13;;;5.70;96.50;;;;;;2076116;28;20041;-90
2021/12/12 05:43:56;;;;;;;6.40;3.95;;;5.70;96.50;;;;;;2086217;28;20076;-90
2021/12/12 05:44:59;;;;;;;7.10;4.25;;;5.70;96.50;;;;;;2091260;28;20056;-90
2021/12/12 05:46:01;;;;;;;6.00;3.50;;;5.70;96.50;;;;;;2090715;28;20364;-90
2021/12/12 05:47:05;;;;;;;5.68;4.05;;;5.70;96.50;;;;;;2090005;28;20121;-89
2021/12/12 05:48:08;;;;;;;7.30;4.20;;;5.70;96.50;;;;;;2081246;28;20487;-89
2021/12/12 05:49:10;;;;;;;7.53;4.80;;;5.70;96.50;;;;;;2063312;28;20031;-89
2021/12/12 05:50:14;;;;;;;7.40;4.25;;;5.70;96.50;;;;;;2064853;28;20037;-89
2021/12/12 05:51:17;;;;;;;6.90;4.30;;;5.70;96.50;;;;;;2085230;28;20036;-89
2021/12/12 05:52:21;;;;;;;7.50;4.30;;;5.70;96.50;;;;;;2090950;28;20052;-90
2021/12/12 05:53:22;;;;;;;6.25;4.53;;;5.80;96.50;;;;;;2090738;28;20013;-89
2021/12/12 05:54:25;;;;;;;7.00;4.75;;;5.70;96.50;;;;;;2090068;28;20548;-89
2021/12/12 05:55:31;;;;;;;6.28;4.82;;;5.80;96.50;;;;;;2091171;28;20482;-90
2021/12/12 05:56:36;;;;;;;10.23;5.63;;;5.80;96.50;;;;;;2090883;28;20032;-90
2021/12/12 05:57:37;;;;;;;8.48;4.82;;;5.80;96.50;;;;;;2090372;28;20101;-90
2021/12/12 05:58:38;;;;;;;7.20;4.40;;;5.80;96.50;;;;;;2089727;28;20033;-89
2021/12/12 05:59:39;;;;;;;8.13;5.38;;;5.80;96.50;;;;;;2079913;28;20026;-90
2021/12/12 06:00:48;;;;;;;7.57;4.97;;;5.80;96.50;;;;;;2075463;28;20057;-90
2021/12/12 06:01:49;;;;;;;6.43;4.95;;;5.80;96.50;;;;;;2072564;28;20030;-91
2021/12/12 06:02:50;;;;;;;7.07;4.88;;;5.80;96.50;;;;;;2082648;28;20439;-90